Latest Weather Observations for Cape Moreton

IDQ60801

Issued at 10:02 pm EST Friday 16 November 2018 (issued every 10 minutes, with the page automatically refreshed every 10 minutes)

About weather observations | Map of weather stations | Latest weather observations for QLD | Other Formats
Station Details ID: 040043 Name: CAPE MORETON LIGHTHOUSE Lat: -27.03 Lon: 153.47 Height: 99.9 m
Data from the previous 72 hours. | See also: Recent months at Cape Moreton
Date/Time
EST
Temp
°C
App
Temp
°C
Dew
Point
°C
Rel
Hum
%
Delta-T
°C
Wind Press
QNH
hPa
Press
MSL
hPa
Rain since
9am
mm
Dir  Spd
km/h
Gust
km/h
Spd
kts
Gust
kts
16/10:00pm 22.3 21.2 17.2 73 3.1 ENE 19 24 10 13 1016.6 1016.2 0.0
16/09:30pm 22.5 21.3 17.4 73 3.2 ENE 20 24 11 13 1016.6 1016.2 0.0
16/09:00pm 22.5 21.4 17.8 75 2.9 ENE 20 24 11 13 1016.5 1016.1 0.0
16/08:30pm 22.6 21.8 17.9 75 2.9 ENE 19 22 10 12 1016.4 1016.0 0.0
16/08:00pm 22.6 21.6 17.5 73 3.2 NE 19 24 10 13 1015.9 1015.5 0.0
16/07:30pm 22.7 21.2 17.8 74 3.1 NE 22 28 12 15 1015.1 1014.7 0.0
16/07:00pm 22.7 20.9 17.8 74 3.1 ENE 24 28 13 15 1015.0 1014.6 0.0
16/06:30pm 22.6 20.9 17.3 72 3.3 ENE 22 30 12 16 1014.9 1014.5 0.0
16/06:00pm 23.0 21.1 17.7 72 3.3 ENE 24 30 13 16 1014.6 1014.1 0.0
16/05:30pm 23.0 20.7 17.5 71 3.4 ENE 26 30 14 16 1014.5 1014.0 0.0
16/05:00pm 23.2 20.6 17.7 71 3.4 ENE 28 33 15 18 1014.4 1013.9 0.0
16/04:30pm 23.4 20.6 17.2 68 3.8 ENE 28 32 15 17 1014.3 1013.8 0.0
16/04:00pm 23.9 20.9 16.9 65 4.3 E 28 32 15 17 1014.2 1013.7 0.0
16/03:30pm 24.0 22.5 17.7 68 3.9 ENE 22 28 12 15 1014.3 1013.8 0.0
16/03:00pm 24.3 23.1 17.5 66 4.2 ENE 20 24 11 13 1014.8 1014.3 0.0
16/02:30pm 24.8 24.2 17.5 64 4.6 ENE 17 19 9 10 1015.2 1014.8 0.0
16/02:00pm 25.0 24.8 17.5 63 4.7 ENE 15 19 8 10 1015.4 1015.0 0.0
16/01:30pm 25.6 25.7 17.5 61 5.1 ENE 13 19 7 10 1015.8 1015.4 0.0
16/01:00pm 25.6 25.1 17.8 62 4.9 ENE 17 20 9 11 1016.1 1015.7 0.0
16/12:30pm 26.6 26.5 17.9 59 5.5 E 15 20 8 11 1016.5 1016.1 0.0
16/12:00pm 26.7 26.8 18.3 60 5.4 E 15 19 8 10 1016.7 1016.3 0.0
16/11:30am 27.2 27.1 18.8 60 5.4 E 17 20 9 11 1017.1 1016.7 0.0
16/11:00am 26.3 26.5 17.6 58 5.5 E 13 17 7 9 1017.5 1017.1 0.0
16/10:30am 27.1 27.0 17.8 56 5.9 E 15 17 8 9 1017.8 1017.4 0.0
16/10:00am 26.5 27.5 18.6 62 5.0 E 11 13 6 7 1018.1 1017.7 0.0
16/09:30am 25.7 26.2 17.4 60 5.2 E 11 15 6 8 1018.3 1017.9 0.0
16/09:00am 26.0 26.5 17.4 59 5.4 E 11 15 6 8 1018.3 1017.9 0.0
16/08:30am 25.2 25.7 17.4 62 4.9 ENE 11 15 6 8 1018.2 1017.8 0.0
16/08:00am 25.8 26.8 18.7 65 4.5 ENE 11 13 6 7 1018.1 1017.7 0.0
16/07:30am 25.1 25.4 17.8 64 4.6 ENE 13 15 7 8 1017.9 1017.5 0.0
16/07:00am 23.3 24.6 17.5 70 3.6 E 7 9 4 5 1017.9 1017.5 0.0
16/06:30am 24.1 25.0 17.6 67 4.1 E 9 13 5 7 1017.6 1017.2 0.0
16/06:00am 24.0 25.1 18.0 69 3.8 E 9 11 5 6 1017.6 1017.2 0.0
16/05:30am 21.7 22.2 17.5 77 2.6 E 11 13 6 7 1017.5 1017.1 0.0
16/05:00am 21.3 21.7 17.3 78 2.5 E 11 13 6 7 1017.2 1016.8 0.0
16/04:30am 21.4 21.8 17.2 77 2.6 E 11 15 6 8 1016.7 1016.3 0.0
16/04:00am 21.5 22.3 17.3 77 2.6 E 9 11 5 6 1016.6 1016.2 0.0
16/03:30am 21.6 22.0 17.2 76 2.7 ENE 11 13 6 7 1016.4 1016.0 0.0
16/03:00am 21.8 22.3 17.4 76 2.7 ENE 11 13 6 7 1016.5 1016.1 0.0
16/02:30am 21.9 21.6 17.3 75 2.8 NE 15 17 8 9 1016.3 1015.9 0.0
16/02:00am 21.9 21.5 17.1 74 3.0 ENE 15 19 8 10 1016.5 1016.1 0.0
16/01:30am 22.1 22.1 17.2 74 3.0 ENE 13 17 7 9 1016.7 1016.3 0.0
16/01:00am 21.9 21.9 17.3 75 2.8 E 13 17 7 9 1017.2 1016.8 0.0
16/12:30am 22.1 21.7 17.2 74 3.0 ENE 15 17 8 9 1017.4 1017.0 0.0
16/12:00am 22.2 22.2 17.1 73 3.1 ENE 13 15 7 8 1017.7 1017.3 0.0
 
Date/Time
EST
Temp
°C
App
Temp
°C
Dew
Point
°C
Rel
Hum
%
Delta-T
°C
Wind Press
QNH
hPa
Press
MSL
hPa
Rain since
9am
mm
Dir  Spd
km/h
Gust
km/h
Spd
kts
Gust
kts
15/11:30pm 22.1 22.0 17.0 73 3.1 NE 13 15 7 8 1017.8 1017.4 0.0
15/11:00pm 22.1 22.0 17.0 73 3.1 NE 13 17 7 9 1017.9 1017.5 0.0
15/10:30pm 22.1 21.6 17.0 73 3.1 NE 15 19 8 10 1017.8 1017.4 0.0
15/10:00pm 22.1 22.2 17.5 75 2.8 NNE 13 17 7 9 1018.1 1017.7 0.0
15/09:30pm 22.3 21.8 17.7 75 2.9 NE 17 20 9 11 1018.1 1017.7 0.0
15/09:00pm 22.4 21.5 17.8 75 2.9 NE 19 22 10 12 1018.0 1017.6 0.0
15/08:30pm 22.4 21.9 17.8 75 2.9 NE 17 20 9 11 1017.8 1017.4 0.0
15/08:00pm 22.4 21.9 17.8 75 2.9 NE 17 20 9 11 1017.6 1017.2 0.0
15/07:30pm 22.5 22.1 18.1 76 2.8 NE 17 22 9 12 1017.2 1016.8 0.0
15/07:00pm 22.6 21.9 18.2 76 2.8 ENE 19 22 10 12 1016.9 1016.5 0.0
15/06:30pm 22.6 21.6 17.9 75 2.9 ENE 20 24 11 13 1016.9 1016.5 0.0
15/06:00pm 22.6 21.5 17.7 74 3.0 ENE 20 26 11 14 1016.5 1016.1 0.0
15/05:30pm 22.9 22.4 17.8 73 3.2 NE 17 22 9 12 1016.2 1015.8 0.0
15/05:00pm 23.0 21.9 17.7 72 3.3 ENE 20 24 11 13 1015.9 1015.5 0.0
15/04:30pm 23.3 22.3 18.0 72 3.3 ENE 20 26 11 14 1015.8 1015.4 0.0
15/04:00pm 23.4 21.7 17.2 68 3.8 ENE 22 26 12 14 1015.9 1015.5 0.0
15/03:30pm 23.7 22.1 17.4 68 3.9 ENE 22 28 12 15 1016.0 1015.6 0.0
15/03:00pm 24.1 23.2 17.8 68 3.9 NE 19 24 10 13 1016.1 1015.7 0.0
15/02:30pm 24.5 24.0 17.7 66 4.3 NE 17 20 9 11 1016.3 1015.9 0.0
15/02:00pm 25.1 24.8 18.3 66 4.3 ENE 17 20 9 11 1016.6 1016.2 0.0
15/01:30pm 25.4 25.2 18.6 66 4.3 ENE 17 20 9 11 1017.2 1016.8 0.0
15/01:00pm 26.1 26.5 18.2 61 5.0 NE 13 19 7 10 1017.6 1017.2 0.0
15/12:30pm 25.8 26.2 18.2 63 4.8 NE 13 19 7 10 1017.8 1017.4 0.0
15/12:00pm 25.9 26.4 18.3 63 4.8 NE 13 17 7 9 1018.1 1017.7 0.0
15/11:30am 26.0 26.0 18.2 62 5.0 ENE 15 19 8 10 1018.5 1018.1 0.0
15/11:00am 26.5 26.7 18.6 62 5.0 ENE 15 19 8 10 1018.8 1018.4 0.0
15/10:30am 25.9 25.9 18.1 62 4.9 ENE 15 19 8 10 1019.1 1018.7 0.0
15/10:00am 25.5 25.3 17.7 62 4.9 ENE 15 20 8 11 1019.3 1018.9 0.0
15/09:30am 25.5 25.5 18.2 64 4.6 ENE 15 19 8 10 1019.4 1019.0 0.0
15/09:00am 25.1 25.3 17.6 63 4.7 ENE 13 17 7 9 1019.4 1019.0 0.0
15/08:30am 25.3 25.9 18.7 67 4.2 ENE 13 15 7 8 1019.4 1019.0 0.0
15/08:00am 24.8 25.5 18.0 66 4.3 NE 11 15 6 8 1019.2 1018.8 0.0
15/07:30am 24.6 25.0 18.1 67 4.1 ENE 13 15 7 8 1019.0 1018.6 0.0
15/07:00am 24.0 24.2 17.7 68 3.9 ENE 13 17 7 9 1018.7 1018.3 0.0
15/06:30am 24.2 24.4 18.6 71 3.6 ENE 15 20 8 11 1018.2 1017.8 0.0
15/06:00am 22.1 22.2 18.3 79 2.4 ENE 15 19 8 10 1018.0 1017.6 0.0
15/05:30am 21.8 21.8 18.0 79 2.4 ENE 15 17 8 9 1017.8 1017.4 0.0
15/05:00am 21.4 22.0 17.8 80 2.2 ENE 11 15 6 8 1017.6 1017.2 0.0
15/04:30am 21.5 22.5 17.7 79 2.4 ENE 9 13 5 7 1017.1 1016.7 0.0
15/04:00am 21.4 22.0 17.6 79 2.4 ENE 11 13 6 7 1016.8 1016.4 0.0
15/03:30am 21.4 22.1 18.0 81 2.1 ENE 11 15 6 8 1016.7 1016.3 0.0
15/03:00am 21.3 22.0 17.9 81 2.1 ENE 11 15 6 8 1016.5 1016.1 0.0
15/02:30am 21.4 22.1 18.0 81 2.1 ENE 11 15 6 8 1016.7 1016.3 0.0
15/02:00am 21.5 21.6 18.3 82 2.0 ENE 15 20 8 11 1016.5 1016.1 0.0
15/01:30am 21.5 21.9 18.1 81 2.1 NE 13 17 7 9 1016.7 1016.3 0.0
15/01:00am 21.6 21.2 18.0 80 2.2 NE 17 20 9 11 1016.8 1016.4 0.0
15/12:30am 21.9 21.6 18.3 80 2.3 NE 17 20 9 11 1017.2 1016.8 0.0
15/12:00am 21.9 21.9 18.1 79 2.4 NE 15 19 8 10 1017.7 1017.3 0.0
 
Date/Time
EST
Temp
°C
App
Temp
°C
Dew
Point
°C
Rel
Hum
%
Delta-T
°C
Wind Press
QNH
hPa
Press
MSL
hPa
Rain since
9am
mm
Dir  Spd
km/h
Gust
km/h
Spd
kts
Gust
kts
14/11:30pm 22.0 21.4 18.4 80 2.3 ENE 19 24 10 13 1017.8 1017.4 0.0
14/11:00pm 22.0 21.3 18.2 79 2.4 ENE 19 22 10 12 1018.1 1017.7 0.0
14/10:30pm 22.0 21.3 18.2 79 2.4 NE 19 22 10 12 1018.3 1017.9 0.0
14/10:00pm 21.9 21.6 18.3 80 2.3 NE 17 20 9 11 1018.4 1018.0 0.0
14/09:30pm 22.0 21.7 18.2 79 2.4 NNE 17 20 9 11 1018.6 1018.2 0.0
14/09:00pm 22.0 21.6 18.0 78 2.5 NE 17 20 9 11 1018.5 1018.1 0.0
14/08:30pm 21.9 21.4 18.7 82 2.0 ENE 19 24 10 13 1018.2 1017.8 0.0
14/08:00pm 21.8 20.8 18.8 83 1.9 ENE 22 28 12 15 1018.1 1017.7 0.0
14/07:30pm 22.0 21.1 18.2 79 2.4 ENE 20 26 11 14 1018.0 1017.6 0.0
14/07:00pm 21.9 21.2 18.3 80 2.3 ENE 19 22 10 12 1017.8 1017.4 0.0
14/06:30pm 21.8 20.9 18.2 80 2.3 ENE 20 24 11 13 1017.8 1017.4 0.0
14/06:00pm 22.0 21.0 18.0 78 2.5 ENE 20 24 11 13 1017.7 1017.3 0.0
14/05:30pm 22.4 21.6 18.0 76 2.8 ENE 19 24 10 13 1017.6 1017.2 0.0
14/05:00pm 22.6 21.2 17.9 75 2.9 E 22 26 12 14 1017.2 1016.8 0.0
14/04:30pm 22.6 22.1 17.9 75 2.9 ENE 17 20 9 11 1017.1 1016.7 0.0
14/04:00pm 22.6 21.9 18.2 76 2.8 ENE 19 22 10 12 1017.1 1016.7 0.0
14/03:30pm 23.1 22.0 18.6 76 2.8 ENE 22 28 12 15 1016.9 1016.5 0.0
14/03:00pm 23.4 22.0 18.7 75 3.0 ENE 24 30 13 16 1016.8 1016.4 0.0
14/02:30pm 24.1 23.0 18.7 72 3.4 ENE 22 28 12 15 1016.8 1016.4 0.0
14/02:00pm 24.6 24.4 18.5 69 3.9 ENE 17 20 9 11 1017.1 1016.7 0.0
14/01:30pm 24.5 24.3 18.4 69 3.9 ENE 17 20 9 11 1017.4 1017.0 0.0
14/01:00pm 25.5 25.4 18.7 66 4.3 NE 17 22 9 12 1017.7 1017.3 0.0
14/12:30pm 25.3 25.1 18.5 66 4.3 ENE 17 20 9 11 1017.9 1017.5 0.0
14/12:00pm 25.6 27.3 19.3 68 4.1 ENE 9 15 5 8 1018.5 1018.1 0.0
14/11:30am 24.8 24.7 18.7 69 3.9 ENE 17 20 9 11 1018.4 1018.0 0.0
14/11:00am 24.6 23.8 16.1 59 5.2 ENE 15 19 8 10 1018.5 1018.1 0.0
14/10:30am 24.1 21.9 16.9 64 4.5 ENE 24 32 13 17 1018.8 1018.4 0.0
14/10:00am 24.5 24.1 18.0 67 4.1 ENE 17 24 9 13 1018.9 1018.5 0.0
14/09:30am 26.8 26.6 19.4 64 4.8 E 19 24 10 13 1018.8 1018.4 0.0
14/09:00am 26.8 26.3 19.2 63 4.9 E 20 24 11 13 1018.5 1018.1 0.0
14/08:30am 26.6 26.1 19.0 63 4.9 E 20 26 11 14 1018.4 1018.0 0.0
14/08:00am 26.3 25.2 18.7 63 4.9 E 22 26 12 14 1018.3 1017.9 0.0
14/07:30am 25.3 24.4 18.2 64 4.5 E 20 24 11 13 1018.3 1017.9 0.0
14/07:00am 25.0 24.3 18.7 68 4.0 E 20 24 11 13 1018.2 1017.8 0.0
14/06:30am 23.5 22.0 17.7 70 3.6 E 22 26 12 14 1017.7 1017.3 0.0
14/06:00am 23.4 21.6 17.8 71 3.5 E 24 28 13 15 1017.4 1017.0 0.0
14/05:30am 21.9 20.0 17.7 77 2.6 E 24 30 13 16 1017.1 1016.7 0.0
14/05:00am 21.3 19.5 17.9 81 2.1 E 24 30 13 16 1016.8 1016.4 0.0
14/04:30am 21.1 19.1 17.5 80 2.2 E 24 32 13 17 1016.4 1016.0 0.0
14/04:00am 21.2 19.0 17.8 81 2.1 E 26 32 14 17 1016.2 1015.8 0.0
14/03:30am 21.3 19.0 17.7 80 2.2 E 26 30 14 16 1016.1 1015.7 0.0
14/03:00am 21.3 19.0 17.5 79 2.3 E 26 30 14 16 1016.2 1015.8 0.0
14/02:30am 21.4 19.1 17.6 79 2.4 ESE 26 32 14 17 1016.2 1015.8 0.0
14/02:00am 21.4 19.5 17.6 79 2.4 ESE 24 30 13 16 1016.4 1016.0 0.0
14/01:30am 21.1 20.1 17.9 82 2.0 ESE 20 26 11 14 1016.7 1016.3 0.0
14/01:00am 21.0 20.2 18.4 85 1.6 E 20 24 11 13 1017.0 1016.6 0.0
14/12:30am 21.1 19.8 18.1 83 1.9 ESE 22 28 12 15 1017.4 1017.0 0.0
14/12:00am 21.3 19.2 18.1 82 2.0 ESE 26 32 14 17 1017.4 1017.0 0.0
 
Date/Time
EST
Temp
°C
App
Temp
°C
Dew
Point
°C
Rel
Hum
%
Delta-T
°C
Wind Press
QNH
hPa
Press
MSL
hPa
Rain since
9am
mm
Dir  Spd
km/h
Gust
km/h
Spd
kts
Gust
kts
13/11:30pm 21.3 19.3 17.5 79 2.3 ESE 24 30 13 16 1018.0 1017.6 0.0
13/11:00pm 21.2 18.7 17.2 78 2.5 ESE 26 32 14 17 1018.2 1017.8 0.0
13/10:30pm 21.4 20.4 18.0 81 2.1 ESE 20 26 11 14 1018.5 1018.1 0.0

Other Formats:

Comma delimited format used in spreadsheet applications
http://www.bom.gov.au/fwo/IDQ60801/IDQ60801.94594.axf

JavaScript Object Notation format (JSON) in row-major order
http://www.bom.gov.au/fwo/IDQ60801/IDQ60801.94594.json